Time;durP1;ratioP1;P1;durP2;ratioP2;P2;SDS_P1;SDS_P2;PMS_P1;PMS_P2;Temp;Humidity;BMP_temperature;BMP_pressure;BME280_temperature;BME280_humidity;BME280_pressure;Samples;Min_cycle;Max_cycle;Signal;HPM_P1;HPM_P2
2022/07/23 00:00:56;;;;;;;;;;;;;;;;;;21178470;28;19976;-53
2022/07/23 00:10:58;;;;;;;;;;;;;;;;;;21182467;28;19926;-53
2022/07/23 00:21:00;;;;;;;;;;;;;;;;;;21181803;28;19924;-53
2022/07/23 00:31:02;;;;;;;;;;;;;;;;;;21171043;28;19920;-54
2022/07/23 00:41:03;;;;;;;;;;;;;;;;;;21169688;28;19929;-55
2022/07/23 00:51:05;;;;;;;;;;;;;;;;;;21168603;28;19919;-54
2022/07/23 01:01:07;;;;;;;;;;;;;;;;;;21168323;28;19920;-55
2022/07/23 01:11:09;;;;;;;;;;;;;;;;;;21166906;28;19919;-56
2022/07/23 01:21:12;;;;;;;;;;;;;;;;;;21167424;28;19926;-54
2022/07/23 01:31:17;;;;;;;;;;;;;;;;;;21165467;28;20287;-57
2022/07/23 01:41:24;;;;;;;;;;;;;;;;;;21165587;28;19919;-54
2022/07/23 01:51:33;;;;;;;;;;;;;;;;;;21164352;28;19930;-54
2022/07/23 02:01:36;;;;;;;;;;;;;;;;;;21163924;28;19927;-55
2022/07/23 02:11:39;;;;;;;;;;;;;;;;;;21165261;28;19920;-55
2022/07/23 02:21:42;;;;;;;;;;;;;;;;;;21165206;28;19947;-53
2022/07/23 02:31:46;;;;;;;;;;;;;;;;;;21163148;28;19919;-54
2022/07/23 02:41:49;;;;;;;;;;;;;;;;;;21162478;28;20002;-59
2022/07/23 02:51:51;;;;;;;;;;;;;;;;;;21162852;28;19941;-58
2022/07/23 03:01:53;;;;;;;;;;;;;;;;;;21165007;28;19924;-54
2022/07/23 03:11:56;;;;;;;;;;;;;;;;;;21160951;28;20290;-60
2022/07/23 03:21:58;;;;;;;;;;;;;;;;;;21172405;28;19942;-57
2022/07/23 03:32:02;;;;;;;;;;;;;;;;;;21179159;28;19919;-54
2022/07/23 03:42:05;;;;;;;;;;;;;;;;;;21175358;28;19919;-59
2022/07/23 03:52:06;;;;;;;;;;;;;;;;;;21173522;28;20355;-56
2022/07/23 04:02:08;;;;;;;;;;;;;;;;;;21175850;28;20453;-53
2022/07/23 04:12:10;;;;;;;;;;;;;;;;;;21172055;28;19926;-55
2022/07/23 04:22:12;;;;;;;;;;;;;;;;;;21171478;28;20007;-53
2022/07/23 04:32:14;;;;;;;;;;;;;;;;;;21170195;28;20256;-60
2022/07/23 04:42:19;;;;;;;;;;;;;;;;;;21169747;28;19920;-54
2022/07/23 04:52:22;;;;;;;;;;;;;;;;;;21169165;28;19924;-61
2022/07/23 05:02:24;;;;;;;;;;;;;;;;;;21168315;28;19919;-57
2022/07/23 05:12:26;;;;;;;;;;;;;;;;;;21166361;28;19920;-61
2022/07/23 05:22:28;;;;;;;;;;;;;;;;;;21166386;28;19926;-55
2022/07/23 05:32:30;;;;;;;;;;;;;;;;;;21166340;28;20347;-52
2022/07/23 05:42:42;;;;;;;;;;;;;;;;;;21165209;28;19919;-69
2022/07/23 05:52:53;;;;;;;;;;;;;;;;;;21176289;28;20432;-63
2022/07/23 06:03:04;;;;;;;;;;;;;;;;;;21179732;28;19965;-55
2022/07/23 06:13:24;;;;;;;;;;;;;;;;;;21178088;28;19958;-59
2022/07/23 06:23:26;;;;;;;;;;;;;;;;;;21178052;28;20294;-54
2022/07/23 06:33:28;;;;;;;;;;;;;;;;;;21175147;28;20022;-56
2022/07/23 06:43:30;;;;;;;;;;;;;;;;;;21166519;28;20049;-58
2022/07/23 06:53:31;;;;;;;;;;;;;;;;;;21169104;28;19943;-66
2022/07/23 07:03:33;;;;;;;;;;;;;;;;;;21179169;28;20387;-55
2022/07/23 07:13:49;;;;;;;;;;;;;;;;;;21178773;27;20279;-55
2022/07/23 07:23:51;;;;;;;;;;;;;;;;;;21177015;28;19927;-54
2022/07/23 07:33:56;;;;;;;;;;;;;;;;;;21176040;28;19923;-58
2022/07/23 07:43:58;;;;;;;;;;;;;;;;;;21176781;28;19923;-58
2022/07/23 07:54:00;;;;;;;;;;;;;;;;;;21174177;28;20276;-62
2022/07/23 08:04:02;;;;;;;;;;;;;;;;;;21173257;28;19973;-69
2022/07/23 08:14:03;;;;;;;;;;;;;;;;;;21172296;28;19931;-71
2022/07/23 08:24:05;;;;;;;;;;;;;;;;;;21173952;28;19920;-55
2022/07/23 08:34:17;;;;;;;;;;;;;;;;;;21170947;28;19920;-54
2022/07/23 08:44:21;;;;;;;;;;;;;;;;;;21152126;28;19919;-63
2022/07/23 08:54:23;;;;;;;;;;;;;;;;;;21171623;28;19919;-65
2022/07/23 09:04:39;;;;;;;;;;;;;;;;;;21152729;28;19972;-61
2022/07/23 09:14:40;;;;;;;;;;;;;;;;;;21172998;28;20386;-67
2022/07/23 09:24:42;;;;;;;;;;;;;;;;;;21187729;28;20375;-67
2022/07/23 09:34:44;;;;;;;;;;;;;;;;;;21192212;28;20406;-74
2022/07/23 09:44:46;;;;;;;;;;;;;;;;;;21188046;28;19923;-55
2022/07/23 09:54:48;;;;;;;;;;;;;;;;;;21166944;28;20282;-54
2022/07/23 10:04:50;;;;;;;;;;;;;;;;;;21156905;28;19919;-53
2022/07/23 10:14:52;;;;;;;;;;;;;;;;;;21165631;28;19919;-55
2022/07/23 10:24:54;;;;;;;;;;;;;;;;;;21169647;28;19924;-58
2022/07/23 10:34:56;;;;;;;;;;;;;;;;;;21184172;28;19920;-64
2022/07/23 10:44:58;;;;;;;;;;;;;;;;;;21182328;28;19980;-54
2022/07/23 10:54:59;;;;;;;;;;;;;;;;;;21181058;28;19920;-55
2022/07/23 11:05:01;;;;;;;;;;;;;;;;;;21181201;28;19928;-56
2022/07/23 11:15:03;;;;;;;;;;;;;;;;;;21182551;28;20019;-59
2022/07/23 11:25:05;;;;;;;;;;;;;;;;;;21181963;28;19920;-55
2022/07/23 11:35:07;;;;;;;;;;;;;;;;;;21179264;28;19927;-59
2022/07/23 11:45:09;;;;;;;;;;;;;;;;;;21176069;28;19919;-54
2022/07/23 11:55:11;;;;;;;;;;;;;;;;;;21178733;28;19926;-68
2022/07/23 12:05:12;;;;;;;;;;;;;;;;;;21177839;28;19920;-54
2022/07/23 12:15:14;;;;;;;;;;;;;;;;;;21173107;28;19953;-56
2022/07/23 12:25:16;;;;;;;;;;;;;;;;;;21172835;28;19965;-54
2022/07/23 12:35:18;;;;;;;;;;;;;;;;;;21171524;28;20523;-55
2022/07/23 12:45:20;;;;;;;;;;;;;;;;;;21171032;28;19920;-55
2022/07/23 12:55:21;;;;;;;;;;;;;;;;;;21171761;28;19927;-55
2022/07/23 13:05:23;;;;;;;;;;;;;;;;;;21169908;28;19973;-56
2022/07/23 13:15:25;;;;;;;;;;;;;;;;;;21168292;28;19926;-69
2022/07/23 13:25:27;;;;;;;;;;;;;;;;;;21167646;28;20321;-55
2022/07/23 13:35:28;;;;;;;;;;;;;;;;;;21165776;28;19919;-57
2022/07/23 13:45:30;;;;;;;;;;;;;;;;;;21165854;28;19963;-54
2022/07/23 13:55:32;;;;;;;;;;;;;;;;;;21166534;28;19973;-55
2022/07/23 14:05:33;;;;;;;;;;;;;;;;;;21166644;28;19925;-55
2022/07/23 14:15:36;;;;;;;;;;;;;;;;;;21164950;28;20224;-56
2022/07/23 14:25:38;;;;;;;;;;;;;;;;;;21162865;28;20275;-64
2022/07/23 14:35:40;;;;;;;;;;;;;;;;;;21162214;28;20287;-54
2022/07/23 14:45:42;;;;;;;;;;;;;;;;;;21161994;28;20028;-56
2022/07/23 14:55:43;;;;;;;;;;;;;;;;;;21162105;28;19919;-55
2022/07/23 15:05:45;;;;;;;;;;;;;;;;;;21162616;28;20392;-61
2022/07/23 15:15:47;;;;;;;;;;;;;;;;;;21169981;28;19959;-68
2022/07/23 15:25:49;;;;;;;;;;;;;;;;;;21176337;28;20027;-63
2022/07/23 15:35:52;;;;;;;;;;;;;;;;;;21175136;28;19926;-60
2022/07/23 15:45:54;;;;;;;;;;;;;;;;;;21174292;28;19934;-56
2022/07/23 15:55:56;;;;;;;;;;;;;;;;;;21173733;28;20395;-55
2022/07/23 16:05:57;;;;;;;;;;;;;;;;;;21172864;28;19930;-56
2022/07/23 16:15:59;;;;;;;;;;;;;;;;;;21171602;28;19919;-56
2022/07/23 16:26:01;;;;;;;;;;;;;;;;;;21171478;28;19959;-54
2022/07/23 16:36:02;;;;;;;;;;;;;;;;;;21170205;28;20276;-55
2022/07/23 16:46:04;;;;;;;;;;;;;;;;;;21169936;28;19923;-56
2022/07/23 16:56:06;;;;;;;;;;;;;;;;;;21169388;28;20375;-57
2022/07/23 17:06:08;;;;;;;;;;;;;;;;;;21174663;28;19947;-76
2022/07/23 17:16:10;;;;;;;;;;;;;;;;;;21185219;28;19920;-74
2022/07/23 17:26:11;;;;;;;;;;;;;;;;;;21177037;28;19927;-55
2022/07/23 17:36:15;;;;;;;;;;;;;;;;;;21169404;28;19926;-59
2022/07/23 17:46:17;;;;;;;;;;;;;;;;;;21169541;28;19920;-60
2022/07/23 17:56:19;;;;;;;;;;;;;;;;;;21166251;28;19927;-57
2022/07/23 18:06:21;;;;;;;;;;;;;;;;;;21164383;28;20014;-57
2022/07/23 18:16:22;;;;;;;;;;;;;;;;;;21163696;28;20328;-54
2022/07/23 18:26:25;;;;;;;;;;;;;;;;;;21163069;28;19923;-55
2022/07/23 18:36:27;;;;;;;;;;;;;;;;;;21163595;28;19927;-54
2022/07/23 18:46:29;;;;;;;;;;;;;;;;;;21168033;28;19996;-59
2022/07/23 18:56:30;;;;;;;;;;;;;;;;;;21180765;28;20336;-55
2022/07/23 19:06:32;;;;;;;;;;;;;;;;;;21178976;28;19920;-56
2022/07/23 19:16:34;;;;;;;;;;;;;;;;;;21178557;28;19920;-55
2022/07/23 19:26:35;;;;;;;;;;;;;;;;;;21176638;28;19924;-54
2022/07/23 19:36:37;;;;;;;;;;;;;;;;;;21175358;28;20342;-59
2022/07/23 19:46:38;;;;;;;;;;;;;;;;;;21174986;28;20288;-56
2022/07/23 19:56:40;;;;;;;;;;;;;;;;;;21172907;28;19965;-55
2022/07/23 20:06:42;;;;;;;;;;;;;;;;;;21174550;28;19927;-56
2022/07/23 20:16:43;;;;;;;;;;;;;;;;;;21171761;28;19920;-55
2022/07/23 20:26:46;;;;;;;;;;;;;;;;;;21171142;28;19923;-55
2022/07/23 20:36:47;;;;;;;;;;;;;;;;;;21170353;28;19924;-55
2022/07/23 20:46:50;;;;;;;;;;;;;;;;;;21168882;28;19927;-55
2022/07/23 20:56:51;;;;;;;;;;;;;;;;;;21169823;28;19943;-55
2022/07/23 21:06:53;;;;;;;;;;;;;;;;;;21167133;28;19919;-56
2022/07/23 21:16:55;;;;;;;;;;;;;;;;;;21165726;28;19928;-55
2022/07/23 21:26:57;;;;;;;;;;;;;;;;;;21165932;28;20289;-54
2022/07/23 21:36:59;;;;;;;;;;;;;;;;;;21164891;28;20006;-58
2022/07/23 21:47:01;;;;;;;;;;;;;;;;;;21166115;28;20287;-54
2022/07/23 21:57:02;;;;;;;;;;;;;;;;;;21164424;28;19919;-56
2022/07/23 22:07:04;;;;;;;;;;;;;;;;;;21164303;28;19919;-55
2022/07/23 22:17:06;;;;;;;;;;;;;;;;;;21163637;28;19923;-53
2022/07/23 22:27:08;;;;;;;;;;;;;;;;;;21180455;28;20290;-54
2022/07/23 22:37:10;;;;;;;;;;;;;;;;;;21186357;28;19919;-54
2022/07/23 22:47:11;;;;;;;;;;;;;;;;;;21179933;28;19973;-54
2022/07/23 22:57:13;;;;;;;;;;;;;;;;;;21180553;28;19943;-55
2022/07/23 23:07:15;;;;;;;;;;;;;;;;;;21177091;28;19927;-54
2022/07/23 23:17:16;;;;;;;;;;;;;;;;;;21176739;28;20018;-55
2022/07/23 23:27:18;;;;;;;;;;;;;;;;;;21175906;28;20363;-59
2022/07/23 23:37:20;;;;;;;;;;;;;;;;;;21174862;28;19920;-54
2022/07/23 23:47:21;;;;;;;;;;;;;;;;;;21174536;28;19978;-55
2022/07/23 23:57:23;;;;;;;;;;;;;;;;;;21174118;28;20391;-54
